createdAt,value
2022-09-06T00:02:21.646Z,2.33
2022-09-06T00:04:50.139Z,2.60
2022-09-06T00:07:18.250Z,2.78
2022-09-06T00:09:46.065Z,2.72
2022-09-06T00:12:15.333Z,2.40
2022-09-06T00:14:43.158Z,3.03
2022-09-06T00:17:11.346Z,2.70
2022-09-06T00:19:39.346Z,2.80
2022-09-06T00:22:07.320Z,2.60
2022-09-06T00:24:37.132Z,2.72
2022-09-06T00:27:05.245Z,2.50
2022-09-06T00:29:35.508Z,3.05
2022-09-06T00:32:03.947Z,2.85
2022-09-06T00:34:32.113Z,2.70
2022-09-06T00:37:00.038Z,2.83
2022-09-06T00:39:28.034Z,2.63
2022-09-06T00:41:55.950Z,2.22
2022-09-06T00:44:24.399Z,3.08
2022-09-06T00:46:55.516Z,2.75
2022-09-06T00:49:27.127Z,2.80
2022-09-06T00:52:00.240Z,3.17
2022-09-06T00:54:28.894Z,3.00
2022-09-06T00:56:58.570Z,3.00
2022-09-06T00:59:27.246Z,2.80
2022-09-06T01:01:56.654Z,2.95
2022-09-06T01:04:24.765Z,3.40
2022-09-06T01:07:02.521Z,2.78
2022-09-06T01:09:45.340Z,2.80
2022-09-06T01:12:27.270Z,2.45
2022-09-06T01:15:10.356Z,2.85
2022-09-06T01:17:55.726Z,2.75
2022-09-06T01:20:54.022Z,2.90
2022-09-06T01:23:54.851Z,2.90
2022-09-06T01:26:54.113Z,2.85
2022-09-06T01:29:30.823Z,3.17
2022-09-06T01:32:04.704Z,3.20
2022-09-06T01:34:38.701Z,2.95
2022-09-06T01:37:11.214Z,3.05
2022-09-06T01:39:40.865Z,3.10
2022-09-06T01:42:12.568Z,3.07
2022-09-06T01:44:45.446Z,3.28
2022-09-06T01:47:23.089Z,3.65
2022-09-06T01:50:21.686Z,3.25
2022-09-06T01:53:00.162Z,3.42
2022-09-06T01:55:32.777Z,3.10
2022-09-06T01:58:25.425Z,3.55
2022-09-06T02:00:59.853Z,3.40
2022-09-06T02:03:33.835Z,3.38
2022-09-06T02:06:08.291Z,3.25
2022-09-06T02:08:40.434Z,3.10
2022-09-06T02:11:10.366Z,2.92
2022-09-06T02:13:40.934Z,3.22
2022-09-06T02:18:43.745Z,3.35
2022-09-06T02:21:15.411Z,3.83
2022-09-06T02:23:45.358Z,3.33
2022-09-06T02:26:18.459Z,3.47
2022-09-06T02:28:46.645Z,3.42
2022-09-06T02:31:20.924Z,3.70
2022-09-06T02:33:50.312Z,3.97
2022-09-06T02:36:19.019Z,3.60
2022-09-06T02:38:47.666Z,3.22
2022-09-06T02:41:18.418Z,3.63
2022-09-06T02:43:46.704Z,2.83
2022-09-06T02:46:16.762Z,4.18
2022-09-06T02:48:44.602Z,3.38
2022-09-06T02:51:12.666Z,3.55
2022-09-06T02:53:40.488Z,4.10
2022-09-06T02:56:08.520Z,3.70
2022-09-06T02:58:36.807Z,3.60
2022-09-06T03:01:05.135Z,3.72
2022-09-06T03:03:34.320Z,3.28
2022-09-06T03:06:02.176Z,3.55
2022-09-06T03:08:33.581Z,3.80
2022-09-06T03:11:02.075Z,3.97
2022-09-06T03:13:30.264Z,3.20
2022-09-06T03:16:00.093Z,4.00
2022-09-06T03:18:29.830Z,3.47
2022-09-06T03:20:59.772Z,3.40
2022-09-06T03:23:29.229Z,3.72
2022-09-06T03:25:57.545Z,3.42
2022-09-06T03:28:25.521Z,3.42
2022-09-06T03:30:53.807Z,3.45
2022-09-06T03:33:21.913Z,3.60
2022-09-06T03:35:51.644Z,3.65
2022-09-06T03:38:21.567Z,3.70
2022-09-06T03:40:50.119Z,3.45
2022-09-06T03:43:18.634Z,3.92
2022-09-06T03:45:47.866Z,3.25
2022-09-06T03:48:16.708Z,3.35
2022-09-06T03:50:46.532Z,3.70
2022-09-06T03:53:15.064Z,3.85
2022-09-06T03:55:47.053Z,4.13
2022-09-06T03:58:15.871Z,3.80
2022-09-06T04:00:43.737Z,3.30
2022-09-06T04:03:11.969Z,4.05
2022-09-06T04:05:39.821Z,4.22
2022-09-06T04:08:08.022Z,3.58
2022-09-06T04:10:35.864Z,3.17
2022-09-06T04:13:05.007Z,3.67
2022-09-06T04:15:32.832Z,4.65
2022-09-06T04:18:00.630Z,3.55
2022-09-06T04:20:28.478Z,3.42
2022-09-06T04:22:56.258Z,3.63
2022-09-06T04:25:24.039Z,3.80
2022-09-06T04:27:52.075Z,3.50
2022-09-06T04:30:21.314Z,3.03
2022-09-06T04:32:49.123Z,3.25
2022-09-06T04:35:16.990Z,3.78
2022-09-06T04:37:44.795Z,3.80
2022-09-06T04:40:13.402Z,3.88
2022-09-06T04:42:41.177Z,3.92
2022-09-06T04:45:10.387Z,3.63
2022-09-06T04:47:39.523Z,3.75
2022-09-06T04:50:08.318Z,4.32
2022-09-06T04:52:36.187Z,3.72
2022-09-06T04:55:04.082Z,3.47
2022-09-06T04:57:31.884Z,3.40
2022-09-06T04:59:59.716Z,3.92
2022-09-06T05:02:27.604Z,3.53
2022-09-06T05:04:57.146Z,3.53
2022-09-06T05:07:24.982Z,3.95
2022-09-06T05:09:52.838Z,3.58
2022-09-06T05:12:20.605Z,3.75
2022-09-06T05:14:48.417Z,3.70
2022-09-06T05:17:16.249Z,3.50
2022-09-06T05:19:44.240Z,3.90
2022-09-06T05:22:13.379Z,3.70
2022-09-06T05:24:41.218Z,3.30
2022-09-06T05:27:09.429Z,3.17
2022-09-06T05:29:37.260Z,3.53
2022-09-06T05:32:05.406Z,3.50
2022-09-06T05:34:33.307Z,3.20
2022-09-06T05:37:01.266Z,3.80
2022-09-06T05:39:30.498Z,3.85
2022-09-06T05:41:58.838Z,3.40
2022-09-06T05:44:26.629Z,3.63
2022-09-06T05:46:54.404Z,3.90
2022-09-06T05:49:22.225Z,3.83
2022-09-06T05:51:52.489Z,3.72
2022-09-06T05:54:20.336Z,4.05
2022-09-06T05:56:49.799Z,3.70
2022-09-06T05:59:17.648Z,3.15
2022-09-06T06:01:49.811Z,2.92
2022-09-06T06:04:19.474Z,3.30
2022-09-06T06:06:49.000Z,3.30
2022-09-06T06:09:17.596Z,2.97
2022-09-06T06:11:45.557Z,5.38
2022-09-06T06:14:14.631Z,3.55
2022-09-06T06:16:42.457Z,3.72
2022-09-06T06:19:10.359Z,3.58
2022-09-06T06:21:39.105Z,4.00
2022-09-06T06:24:07.574Z,3.83
2022-09-06T06:26:37.097Z,3.55
2022-09-06T06:29:08.168Z,3.65
2022-09-06T06:31:39.052Z,3.90
2022-09-06T06:34:07.318Z,4.30
2022-09-06T06:36:36.570Z,4.00
2022-09-06T06:39:06.658Z,3.92
2022-09-06T06:41:34.515Z,3.65
2022-09-06T06:44:04.053Z,3.63
2022-09-06T06:46:34.094Z,3.87
2022-09-06T06:49:03.246Z,3.20
2022-09-06T06:51:33.188Z,3.60
2022-09-06T06:54:00.944Z,3.55
2022-09-06T06:56:30.634Z,3.88
2022-09-06T06:59:00.463Z,3.40
2022-09-06T07:01:30.421Z,3.40
2022-09-06T07:03:58.604Z,3.75
2022-09-06T07:09:18.124Z,3.53
2022-09-06T07:11:46.269Z,3.63
2022-09-06T07:14:14.077Z,4.72
2022-09-06T07:16:42.044Z,3.17
2022-09-06T07:22:02.900Z,3.78
2022-09-06T07:24:33.122Z,3.63
2022-09-06T07:29:48.700Z,3.20
2022-09-06T07:32:16.553Z,3.30
2022-09-06T07:34:44.409Z,3.65
2022-09-06T07:37:13.612Z,3.67
2022-09-06T07:39:41.678Z,3.83
2022-09-06T07:42:10.112Z,3.50
2022-09-06T07:44:37.956Z,3.67
2022-09-06T07:55:31.234Z,3.42
2022-09-06T07:57:59.061Z,3.60
2022-09-06T08:00:27.256Z,3.78
2022-09-06T08:02:55.106Z,3.88
2022-09-06T08:11:00.261Z,2.80
2022-09-06T08:13:28.341Z,2.97
2022-09-06T08:15:59.419Z,2.92
2022-09-06T08:18:27.452Z,2.35
2022-09-06T08:20:55.423Z,2.63
2022-09-06T08:23:24.562Z,3.50
2022-09-06T08:25:59.170Z,3.10
2022-09-06T08:28:28.960Z,2.33
2022-09-06T08:30:57.242Z,2.50
2022-09-06T08:33:25.719Z,3.00
2022-09-06T08:35:57.506Z,3.00
2022-09-06T08:38:26.674Z,2.70
2022-09-06T08:40:56.381Z,2.90
2022-09-06T08:43:24.328Z,3.00
2022-09-06T08:45:57.364Z,2.53
2022-09-06T08:48:28.550Z,2.45
2022-09-06T08:51:11.893Z,3.08
2022-09-06T08:53:46.467Z,2.55
2022-09-06T08:56:17.915Z,2.65
2022-09-06T08:58:59.778Z,2.80
2022-09-06T09:01:35.671Z,2.45
2022-09-06T09:04:07.304Z,2.42
2022-09-06T09:06:36.272Z,2.30
2022-09-06T09:09:07.864Z,2.72
2022-09-06T09:11:37.955Z,2.38
2022-09-06T09:16:35.452Z,2.38
2022-09-06T09:19:06.056Z,2.42
2022-09-06T09:21:37.503Z,2.08
2022-09-06T09:24:09.645Z,2.38
2022-09-06T09:26:48.905Z,2.20
2022-09-06T09:29:17.281Z,2.10
2022-09-06T09:31:53.762Z,2.10
2022-09-06T09:34:33.291Z,2.50
2022-09-06T09:40:14.095Z,1.60
2022-09-06T09:42:42.042Z,2.10
2022-09-06T09:45:26.527Z,1.90
2022-09-06T09:47:54.846Z,1.48
2022-09-06T09:50:27.365Z,1.50
2022-09-06T09:52:55.653Z,1.30
2022-09-06T09:55:27.123Z,1.20
2022-09-06T09:57:56.279Z,1.60
2022-09-06T10:00:36.319Z,1.50
2022-09-06T10:03:13.199Z,1.80
2022-09-06T10:05:42.697Z,1.48
2022-09-06T10:08:13.374Z,1.20
2022-09-06T10:10:47.469Z,1.60
2022-09-06T10:13:21.013Z,2.08
2022-09-06T10:15:49.943Z,1.48
2022-09-06T10:18:29.706Z,1.88
2022-09-06T10:21:01.729Z,1.83
2022-09-06T10:26:39.795Z,1.70
2022-09-06T10:29:10.340Z,1.58
2022-09-06T10:31:57.239Z,1.83
2022-09-06T10:34:46.943Z,1.98
2022-09-06T10:37:26.252Z,1.50
2022-09-06T10:39:59.019Z,1.98
2022-09-06T10:42:36.750Z,1.50
2022-09-06T10:45:18.094Z,1.40
2022-09-06T10:47:57.617Z,2.00
2022-09-06T10:50:34.617Z,1.70
2022-09-06T10:53:10.659Z,1.67
2022-09-06T10:55:43.557Z,1.70
2022-09-06T10:58:19.222Z,2.33
2022-09-06T11:00:50.720Z,2.22
2022-09-06T11:06:17.261Z,1.60
2022-09-06T11:08:53.462Z,1.48
2022-09-06T11:11:35.467Z,1.70
2022-09-06T11:14:10.560Z,1.60
2022-09-06T11:16:46.791Z,1.65
2022-09-06T11:19:21.598Z,1.10
2022-09-06T11:22:34.012Z,1.23
2022-09-06T11:25:32.371Z,1.40
2022-09-06T11:28:03.961Z,1.50
2022-09-06T11:30:33.267Z,1.40
2022-09-06T11:33:14.218Z,1.50
2022-09-06T11:35:44.993Z,1.40
2022-09-06T11:38:24.285Z,1.30
2022-09-06T11:40:58.905Z,1.52
2022-09-06T11:43:46.149Z,1.40
2022-09-06T11:46:48.456Z,1.58
2022-09-06T11:49:35.276Z,1.27
2022-09-06T11:52:03.673Z,1.63
2022-09-06T11:54:43.752Z,1.85
2022-09-06T11:57:16.570Z,1.80
2022-09-06T11:59:54.818Z,1.48
2022-09-06T12:02:37.850Z,1.48
2022-09-06T12:05:19.433Z,1.80
2022-09-06T12:08:26.757Z,1.50
2022-09-06T12:11:23.027Z,1.10
2022-09-06T12:14:04.052Z,1.25
2022-09-06T12:17:19.992Z,1.42
2022-09-06T12:19:49.665Z,1.48
2022-09-06T12:23:04.076Z,1.50
2022-09-06T12:25:57.455Z,1.13
2022-09-06T12:28:41.112Z,1.52
2022-09-06T12:31:31.845Z,1.23
2022-09-06T12:34:00.215Z,1.65
2022-09-06T12:36:32.096Z,1.27
2022-09-06T12:39:01.796Z,1.25
2022-09-06T12:41:42.953Z,1.23
2022-09-06T12:44:12.023Z,1.70
2022-09-06T12:46:46.428Z,1.13
2022-09-06T12:49:22.349Z,1.10
2022-09-06T12:51:50.451Z,1.42
2022-09-06T12:54:21.818Z,1.38
2022-09-06T12:56:51.812Z,1.40
2022-09-06T12:59:22.036Z,1.30
2022-09-06T13:01:58.911Z,1.17
2022-09-06T13:04:39.964Z,1.40
2022-09-06T13:07:13.024Z,1.20
2022-09-06T13:09:46.879Z,1.17
2022-09-06T13:12:24.846Z,1.13
2022-09-06T13:14:54.658Z,1.20
2022-09-06T13:19:54.616Z,1.10
2022-09-06T13:22:41.688Z,1.20
2022-09-06T13:25:24.265Z,1.42
2022-09-06T13:27:57.717Z,1.40
2022-09-06T13:30:58.332Z,1.13
2022-09-06T13:33:27.579Z,0.85
2022-09-06T13:36:16.819Z,1.20
2022-09-06T13:38:46.073Z,1.52
2022-09-06T13:41:38.002Z,1.58
2022-09-06T13:44:17.687Z,1.00
2022-09-06T13:46:45.702Z,1.00
2022-09-06T13:49:22.489Z,1.00
2022-09-06T13:51:50.759Z,0.60
2022-09-06T13:54:18.613Z,1.23
2022-09-06T14:09:16.565Z,0.90
2022-09-06T14:11:48.222Z,1.08
2022-09-06T14:14:17.556Z,0.98
2022-09-06T14:19:57.147Z,1.00
2022-09-06T14:22:25.542Z,0.77
2022-09-06T14:24:55.229Z,0.93
2022-09-06T14:27:48.944Z,0.90
2022-09-06T14:30:17.255Z,0.73
2022-09-06T14:32:45.966Z,1.70
2022-09-06T14:35:13.759Z,0.82
2022-09-06T14:37:43.021Z,0.93
2022-09-06T14:40:12.399Z,0.85
2022-09-06T14:58:40.758Z,0.85
2022-09-06T15:23:32.257Z,0.93
2022-09-06T15:42:14.601Z,1.42
2022-09-06T16:04:31.574Z,1.33
2022-09-06T16:07:00.707Z,1.60
2022-09-06T16:15:12.352Z,2.10
2022-09-06T16:17:40.267Z,2.85
2022-09-06T16:20:08.572Z,2.58
2022-09-06T16:22:38.017Z,1.70
2022-09-06T16:25:11.602Z,1.90
2022-09-06T16:30:42.385Z,1.58
2022-09-06T16:33:10.352Z,1.33
2022-09-06T16:35:40.302Z,1.27
2022-09-06T16:38:10.503Z,1.30
2022-09-06T16:40:38.353Z,1.40
2022-09-06T16:43:06.363Z,1.80
2022-09-06T16:45:34.192Z,1.63
2022-09-06T16:48:01.994Z,1.35
2022-09-06T16:50:29.897Z,1.70
2022-09-06T16:53:01.438Z,1.20
2022-09-06T16:55:32.836Z,1.17
2022-09-06T16:58:00.600Z,1.52
2022-09-06T17:00:28.565Z,1.35
2022-09-06T17:02:56.731Z,1.80
2022-09-06T17:05:24.617Z,1.60
2022-09-06T17:07:52.588Z,1.90
2022-09-06T17:10:20.377Z,1.70
2022-09-06T17:12:49.568Z,2.03
2022-09-06T17:15:17.520Z,3.03
2022-09-06T17:17:45.159Z,1.45
2022-09-06T17:20:12.972Z,2.63
2022-09-06T17:22:40.788Z,1.70
2022-09-06T17:25:08.846Z,1.23
2022-09-06T17:27:36.624Z,1.10
2022-09-06T17:30:06.632Z,1.20
2022-09-06T17:32:36.536Z,1.45
2022-09-06T17:35:04.796Z,1.10
2022-09-06T17:37:33.524Z,1.05
2022-09-06T17:40:01.600Z,1.23
2022-09-06T17:42:30.572Z,1.50
2022-09-06T17:44:58.422Z,1.40
2022-09-06T17:47:28.111Z,1.67
2022-09-06T17:49:55.867Z,1.45
2022-09-06T17:52:23.667Z,1.60
2022-09-06T17:54:51.415Z,1.45
2022-09-06T17:57:19.200Z,1.45
2022-09-06T17:59:47.323Z,1.30
2022-09-06T18:02:15.121Z,1.40
2022-09-06T18:04:44.462Z,1.75
2022-09-06T18:07:12.314Z,1.87
2022-09-06T18:09:41.565Z,1.33
2022-09-06T18:12:09.486Z,1.57
2022-09-06T18:14:37.565Z,2.30
2022-09-06T18:17:05.519Z,2.60
2022-09-06T18:19:33.362Z,1.95
2022-09-06T18:22:02.555Z,1.52
2022-09-06T18:24:30.417Z,1.50
2022-09-06T18:26:58.172Z,1.50
2022-09-06T18:29:25.964Z,1.42
2022-09-06T18:31:54.443Z,1.50
2022-09-06T18:34:22.591Z,1.75
2022-09-06T18:36:50.473Z,1.73
2022-09-06T18:39:20.766Z,1.30
2022-09-06T18:42:01.097Z,1.38
2022-09-06T18:47:02.074Z,1.40
2022-09-06T18:49:31.016Z,1.50
2022-09-06T18:51:59.567Z,1.35
2022-09-06T18:54:28.903Z,1.30
2022-09-06T18:56:56.743Z,1.63
2022-09-06T18:59:24.545Z,1.50
2022-09-06T19:01:52.434Z,1.80
2022-09-06T19:04:20.339Z,1.50
2022-09-06T19:06:48.782Z,1.75
2022-09-06T19:09:18.463Z,1.92
2022-09-06T19:11:51.650Z,1.98
2022-09-06T19:14:20.388Z,1.80
2022-09-06T19:16:50.294Z,1.52
2022-09-06T19:19:18.415Z,1.80
2022-09-06T19:21:46.261Z,1.52
2022-09-06T19:24:15.651Z,1.90
2022-09-06T19:26:45.094Z,1.70
2022-09-06T19:29:16.243Z,1.83
2022-09-06T19:31:45.020Z,1.67
2022-09-06T19:34:15.531Z,1.52
2022-09-06T19:36:44.528Z,1.58
2022-09-06T19:39:17.403Z,2.17
2022-09-06T19:41:47.394Z,2.10
2022-09-06T19:44:18.468Z,1.67
2022-09-06T19:46:47.409Z,1.55
2022-09-06T19:49:16.841Z,1.60
2022-09-06T19:51:46.435Z,1.70
2022-09-06T19:54:15.585Z,1.90
2022-09-06T19:56:44.972Z,1.70
2022-09-06T19:59:13.970Z,1.80
2022-09-06T20:01:45.426Z,2.03
2022-09-06T20:04:14.458Z,1.50
2022-09-06T20:06:42.872Z,1.70
2022-09-06T20:09:11.982Z,1.52
2022-09-06T20:11:41.310Z,1.85
2022-09-06T20:14:10.416Z,2.05
2022-09-06T20:16:41.697Z,1.80
2022-09-06T20:19:13.040Z,1.70
2022-09-06T20:21:40.994Z,1.88
2022-09-06T20:24:09.364Z,2.00
2022-09-06T20:26:37.783Z,1.83
2022-09-06T20:29:06.617Z,1.42
2022-09-06T20:31:35.089Z,1.90
2022-09-06T20:34:04.282Z,2.25
2022-09-06T20:36:33.766Z,2.05
2022-09-06T20:39:02.064Z,2.25
2022-09-06T20:41:30.137Z,1.80
2022-09-06T20:43:59.495Z,2.05
2022-09-06T20:46:29.076Z,2.08
2022-09-06T20:48:58.257Z,2.57
2022-09-06T20:51:26.566Z,2.00
2022-09-06T20:53:58.572Z,2.30
2022-09-06T20:56:29.383Z,1.73
2022-09-06T20:58:59.488Z,1.90
2022-09-06T21:01:29.129Z,2.22
2022-09-06T21:03:59.347Z,1.67
2022-09-06T21:06:28.994Z,2.00
2022-09-06T21:08:58.623Z,2.60
2022-09-06T21:11:26.952Z,2.53
2022-09-06T21:13:56.789Z,2.13
2022-09-06T21:16:26.360Z,2.30
2022-09-06T21:18:55.576Z,2.37
2022-09-06T21:21:23.569Z,2.30
2022-09-06T21:23:51.362Z,2.10
2022-09-06T21:26:21.743Z,2.35
2022-09-06T21:28:50.257Z,2.03
2022-09-06T21:31:21.880Z,2.22
2022-09-06T21:33:52.587Z,1.92
2022-09-06T21:36:22.394Z,2.50
2022-09-06T21:38:53.420Z,2.67
2022-09-06T21:41:23.596Z,2.50
2022-09-06T21:43:53.776Z,2.38
2022-09-06T21:46:22.891Z,2.55
2022-09-06T21:48:52.734Z,2.13
2022-09-06T21:51:22.598Z,2.42
2022-09-06T21:53:52.477Z,2.15
2022-09-06T21:56:23.772Z,2.53
2022-09-06T21:58:52.495Z,2.75
2022-09-06T22:01:20.484Z,2.88
2022-09-06T22:03:48.532Z,3.90
2022-09-06T22:06:18.258Z,3.42
2022-09-06T22:08:46.330Z,3.78
2022-09-06T22:11:16.307Z,2.50
2022-09-06T22:13:46.814Z,2.50
2022-09-06T22:18:44.884Z,2.22
2022-09-06T22:21:18.447Z,2.58
2022-09-06T22:23:51.130Z,2.20
2022-09-06T22:26:19.736Z,2.17
2022-09-06T22:28:49.301Z,2.78
2022-09-06T22:31:17.075Z,2.23
2022-09-06T22:33:44.935Z,3.30
2022-09-06T22:36:12.764Z,2.45
2022-09-06T22:38:40.590Z,2.92
2022-09-06T22:41:09.335Z,2.78
2022-09-06T22:43:37.167Z,2.67
2022-09-06T22:46:08.143Z,2.78
2022-09-06T22:48:36.866Z,2.92
2022-09-06T22:51:06.234Z,2.70
2022-09-06T22:53:34.988Z,2.60
2022-09-06T22:56:03.664Z,2.65
2022-09-06T22:58:31.947Z,2.60
2022-09-06T23:01:08.910Z,2.40
2022-09-06T23:03:37.790Z,2.42
2022-09-06T23:06:06.254Z,3.00
2022-09-06T23:08:35.433Z,2.97
2022-09-06T23:11:06.186Z,3.20
2022-09-06T23:13:34.198Z,2.88
2022-09-06T23:16:08.333Z,2.92
2022-09-06T23:18:36.182Z,2.70
2022-09-06T23:21:06.076Z,3.28
2022-09-06T23:23:33.901Z,3.78
2022-09-06T23:26:06.258Z,2.88
2022-09-06T23:28:34.132Z,3.40
2022-09-06T23:31:07.595Z,3.40
2022-09-06T23:33:36.245Z,3.60
2022-09-06T23:36:04.836Z,3.47
2022-09-06T23:38:33.682Z,3.33
2022-09-06T23:41:02.127Z,4.13
2022-09-06T23:43:30.329Z,3.55
2022-09-06T23:45:58.508Z,3.00
2022-09-06T23:48:27.760Z,3.88
2022-09-06T23:50:55.604Z,3.45
2022-09-06T23:53:23.906Z,3.63
2022-09-06T23:55:51.752Z,4.05
2022-09-06T23:58:19.641Z,3.78
